Kezdőlap
METAR-TAF:

METAR-TAF

Repülőterek :

Besztercebánya, Szlovákia

földrajzi szélesség: 48-38-17N, földrajzi hosszúság: 019-08-03E, magasság: 318 m

METAR: hiányzik

Idő: 17:11 (15:11 UTC)

Előrejelzés

A jelentés 1 órával és 41 perccel ezelõtt készült, 13:30 UTC
Az előrejelzés 23-én 15 óra UTC és 23-én 24 óra UTC között érvényes
Északi szél 12 kt
Látótávolság 10 km, vagy több
Kevés felhő 5000 lábon
23-én 18 óra UTC és 23-én 20 óra UTC között fokozatosan kialakuló
Különbözõ irányokból fújó szél 3 kt
Látótávolság 10 km, vagy több
felhőtlen 1500 m magasságban, és nincs gomolyfelhõ

TAF: LZSL 231330Z 2315/2324 35012KT 9999 FEW050 BECMG 2318/2320 VRB03KT CAVOK

Meteorológiai megfigyelések és előrejelzések több, mint 4000 repülőtéren (METAR és TAF jelentéseket).

A térképen piros és sárga pontok jelzik az elérhető meteorológiai állomásokat.

Mozgassa az egeret a pont fölött, hogy megjelenjen az állomás neve.

Azután kattintson az időjárási megfigyelések és előrejelzések megtekintéséhez.

A térkép megváltoztatása: kattintson a fekete keresztel jelölt zöld gombra ráközelítéshez, a vonallal jelölt zöld gombra távolításhoz, vagy a zöld nyilakra a szomszédos térképek eléréséhez.


METAR-TAF: